TNCMTQPF

Guest
Details From TNCM - St Maarten - Princess Juliana Intl
To TQPF - Anguilla/Wallblake
Flight Number -
Tags generated
Created
Modified
Stats Distance 11 nm / 21 km
Max Altitude 100 ft / 30 m
Waypoints 3
Social Downloads 2
Likes 0
Share VATSIM

Download

Looking for another format? Having issues loading an existing format? Contact us
Advertisement - Login to hide

Notes

Basic altitude profile: - Ascent Rate: 2500ft/min - Ascent Speed: 250kts - Cruise Altitude: 35000ft - Cruise Speed: 420kts - Descent Rate: 1500ft/min - Descent Speed: 250kts

Route

TNCM PJM TQPF

ID Type Via Altitude Latitude Longitude Leg Dist Tot Dist Heading (true) Name
O TNCM APT - 0 ft / 0 m 18.04089˚ -63.10897˚ - 0 nm - St Maarten - Princess Juliana Intl
PJM VOR - 100 ft / 30 m 18.03811˚ -63.11828˚ 0 nm 0 nm 253° / 253° ST MAARTEN VOR-DME
O TQPF APT - 0 ft / 0 m 18.20480˚ -63.05386˚ 10 nm 11 nm 20° / 20° Anguilla/Wallblake

Altitude Profile

Advertisement - Login to hide

TNCM

Details ICAO TNCM (SXM)
Name St Maarten - Princess Juliana Intl
Region Caribbean Netherlands, Aruba, Curaçao, Sint Maarten
Timezone Unknown (UTC+0.0)
Stats Elevation 12 ft / 4 m (AMSL)
Location 18.040889° -63.108974°
Runways 1
Magnetic Variation 14.325° W

METAR

TNCM 171200Z 04014KT 9999 FEW018 25/22 Q1017 A3004 NOSIG RMK SHRA NW

Decode

TAF

TAF TNCM 171141Z 1712/1812 04012KT P6SM VCSH SCT016 SCT035 TEMPO 1712/1714 -SHRA BKN020 FM171400 06015G22KT P6SM VCSH SCT018 SCT050 FM172300 07012KT P6SM SCT022

Decode

Departure Runways

ID Width Length Bearing (true) Bearing (mag) Surface Threshold Offset Overrun Length
10 148 ft / 45 m 7,464 ft / 2,275 m 81.43° 95.76° Asphalt 0 ft / 0 m 151 ft / 46 m
28 148 ft / 45 m 7,464 ft / 2,275 m 261.44° 275.77° Asphalt 397 ft / 121 m 0 ft / 0 m

TQPF

Details ICAO TQPF (AXA)
Name Anguilla/Wallblake
Region UK (Anguilla)
Timezone America/Anguilla (UTC-4.0)
Stats Elevation 127 ft / 39 m (AMSL)
Location 18.204798° -63.053855°
Runways 1
Magnetic Variation 14.348° W

METAR

TQPF 171200Z 05008KT 9999 FEW016 BKN035 24/22 Q1017

Decode

TAF

Not found

Destination Runways

ID Width Length Bearing (true) Bearing (mag) Surface Threshold Offset Overrun Length
10 98 ft / 30 m 5,454 ft / 1,662 m 90.65° 105.00° Asphalt 492 ft / 150 m 0 ft / 0 m
28 98 ft / 30 m 5,454 ft / 1,662 m 270.65° 285.00° Asphalt 492 ft / 150 m 0 ft / 0 m

Popular Alternatives